Updated20/04/2019 22:00 
 

GeoURL
free counters
Scottish Weather Network UK Weather Network Cumulus Top Weather Sites

Peebles Weather - YR.no Forecast

Raw Data, Raw Data Expanded

Ignore low humidity and Dew Point values. Something wrong with the sensor.
Daytime temperatures are in direct sunlight so may be higher than official air temperature values.
As with any other website, we log your IP address and browser type in the server logs for diagnostic reasons. Cookies are used to record visit time and gauges preferences. No personal information is stored or processed.

All times are in local time (GMT, or BST in summer) unless specified.

2019/04/20 20:50 EGPH 202050Z 20004KT 160V240 CAVOK 14/09 Q1026
11.4°C 0.0 mm 0.0 mm 0.0 mm 0.6 mph 2.2 mph 1009.5 hPa 75% X-Ray Solar Flare Level
Planetary K-Index
Planetary K-Index History
Station Warn Rain Snow Flood Wind Ltng Heat Cold Glob Moon Temp Rain 1h Rain Sat Rain 24h Wind 10m Gust Pressure Hum Proton Levels

0.259 m Waning Gibbous Cool F0-S F: A: Kp:0 SSN:0
Free Weather Widget
YoWindow.com yr.no
XHTML 1.1 | CSS